createdAt,value
2017-11-29T00:02:09.908Z,5.72
2017-11-29T00:04:38.493Z,6.00
2017-11-29T00:07:06.571Z,4.15
2017-11-29T00:09:34.631Z,4.68
2017-11-29T00:12:03.735Z,5.37
2017-11-29T00:14:32.297Z,4.57
2017-11-29T00:17:00.370Z,5.15
2017-11-29T00:19:28.456Z,5.75
2017-11-29T00:21:56.503Z,4.90
2017-11-29T00:24:24.570Z,5.22
2017-11-29T00:26:53.411Z,5.80
2017-11-29T00:29:21.459Z,6.00
2017-11-29T00:31:49.537Z,5.43
2017-11-29T00:34:17.593Z,5.47
2017-11-29T00:36:47.847Z,5.43
2017-11-29T00:39:15.912Z,5.12
2017-11-29T00:41:44.355Z,4.12
2017-11-29T00:44:12.425Z,4.87
2017-11-29T00:46:40.497Z,5.97
2017-11-29T00:49:08.601Z,5.12
2017-11-29T00:51:36.668Z,5.00
2017-11-29T00:54:04.749Z,5.50
2017-11-29T00:56:32.925Z,5.03
2017-11-29T00:59:00.980Z,5.32
2017-11-29T01:01:29.960Z,5.90
2017-11-29T01:03:58.023Z,5.00
2017-11-29T01:06:26.104Z,5.12
2017-11-29T01:08:54.321Z,5.45
2017-11-29T01:11:22.394Z,6.45
2017-11-29T01:13:51.265Z,4.97
2017-11-29T01:16:19.355Z,4.93
2017-11-29T01:18:48.174Z,4.95
2017-11-29T01:21:17.044Z,5.25
2017-11-29T01:23:45.880Z,4.78
2017-11-29T01:26:14.069Z,5.57
2017-11-29T01:28:42.143Z,5.47
2017-11-29T01:31:10.260Z,5.15
2017-11-29T01:33:38.349Z,5.20
2017-11-29T01:36:06.450Z,5.37
2017-11-29T01:38:34.553Z,5.53
2017-11-29T01:41:03.375Z,5.70
2017-11-29T01:43:31.453Z,5.32
2017-11-29T01:45:59.528Z,5.60
2017-11-29T01:48:27.597Z,5.80
2017-11-29T01:50:55.673Z,5.78
2017-11-29T01:53:23.755Z,5.70
2017-11-29T01:55:51.819Z,5.72
2017-11-29T01:58:19.894Z,5.55
2017-11-29T02:00:48.728Z,6.00
2017-11-29T02:03:17.580Z,6.05
2017-11-29T02:05:45.653Z,5.22
2017-11-29T02:08:14.456Z,5.45
2017-11-29T02:10:42.512Z,5.07
2017-11-29T02:13:10.581Z,5.20
2017-11-29T02:15:38.647Z,6.00
2017-11-29T02:18:06.717Z,6.10
2017-11-29T02:20:35.521Z,6.47
2017-11-29T02:23:03.686Z,6.62
2017-11-29T02:25:31.743Z,6.10
2017-11-29T02:27:59.800Z,5.72
2017-11-29T02:30:27.894Z,5.30
2017-11-29T02:32:56.033Z,5.62
2017-11-29T02:35:24.086Z,6.05
2017-11-29T02:37:52.189Z,5.75
2017-11-29T02:40:38.192Z,5.12
2017-11-29T02:43:06.257Z,5.95
2017-11-29T02:45:34.334Z,5.55
2017-11-29T02:48:02.469Z,6.90
2017-11-29T02:50:30.553Z,5.95
2017-11-29T02:52:58.616Z,5.75
2017-11-29T02:55:26.668Z,6.65
2017-11-29T02:57:54.737Z,5.12
2017-11-29T03:00:22.808Z,5.20
2017-11-29T03:02:50.898Z,5.65
2017-11-29T03:05:19.008Z,5.10
2017-11-29T03:07:47.023Z,6.32
2017-11-29T03:10:15.093Z,6.22
2017-11-29T03:12:43.181Z,5.85
2017-11-29T03:15:11.237Z,6.55
2017-11-29T03:17:39.817Z,5.85
2017-11-29T03:20:07.913Z,5.93
2017-11-29T03:22:35.959Z,6.78
2017-11-29T03:25:04.713Z,5.87
2017-11-29T03:27:32.861Z,6.93
2017-11-29T03:30:00.943Z,5.82
2017-11-29T03:32:29.142Z,6.60
2017-11-29T03:34:57.972Z,6.53
2017-11-29T03:37:26.035Z,6.57
2017-11-29T03:39:54.109Z,7.30
2017-11-29T03:42:22.182Z,6.72
2017-11-29T03:44:50.255Z,7.25
2017-11-29T03:47:18.332Z,7.28
2017-11-29T03:49:47.306Z,7.65
2017-11-29T03:52:15.373Z,6.93
2017-11-29T03:54:43.445Z,7.20
2017-11-29T03:57:11.552Z,8.15
2017-11-29T03:59:39.608Z,7.82
2017-11-29T04:02:07.677Z,7.62
2017-11-29T04:04:35.780Z,7.70
2017-11-29T04:07:03.841Z,7.62
2017-11-29T04:09:31.914Z,6.75
2017-11-29T04:11:59.984Z,7.43
2017-11-29T04:14:28.070Z,7.43
2017-11-29T04:16:56.912Z,7.72
2017-11-29T04:19:25.029Z,6.97
2017-11-29T04:21:53.867Z,7.43
2017-11-29T04:24:21.941Z,6.62
2017-11-29T04:26:50.010Z,6.72
2017-11-29T04:29:18.436Z,7.82
2017-11-29T04:31:46.494Z,7.37
2017-11-29T04:34:14.559Z,7.75
2017-11-29T04:36:42.619Z,7.35
2017-11-29T04:39:10.699Z,7.22
2017-11-29T04:41:38.772Z,6.80
2017-11-29T04:44:06.881Z,7.97
2017-11-29T04:46:35.698Z,6.85
2017-11-29T04:49:03.786Z,7.95
2017-11-29T04:51:31.841Z,7.10
2017-11-29T04:53:59.913Z,7.12
2017-11-29T04:56:27.993Z,8.13
2017-11-29T04:58:56.072Z,7.07
2017-11-29T05:01:24.161Z,7.85
2017-11-29T05:03:52.237Z,7.72
2017-11-29T05:06:20.386Z,8.27
2017-11-29T05:08:48.466Z,8.55
2017-11-29T05:11:16.528Z,7.22
2017-11-29T05:13:44.616Z,8.10
2017-11-29T05:16:12.676Z,7.43
2017-11-29T05:18:40.786Z,7.68
2017-11-29T05:21:09.741Z,7.57
2017-11-29T05:23:37.819Z,7.70
2017-11-29T05:26:05.867Z,7.18
2017-11-29T05:28:33.930Z,7.90
2017-11-29T05:31:02.001Z,8.15
2017-11-29T05:33:30.094Z,7.70
2017-11-29T05:35:58.163Z,8.38
2017-11-29T05:38:26.219Z,7.68
2017-11-29T05:40:54.306Z,8.95
2017-11-29T05:43:22.382Z,8.65
2017-11-29T05:45:50.484Z,8.43
2017-11-29T05:48:19.338Z,7.20
2017-11-29T05:50:47.409Z,8.18
2017-11-29T05:53:15.483Z,8.45
2017-11-29T05:55:43.551Z,9.00
2017-11-29T05:58:11.625Z,16.40
2017-11-29T06:00:40.591Z,10.02
2017-11-29T06:03:08.674Z,16.83
2017-11-29T06:05:36.732Z,8.55
2017-11-29T06:08:04.831Z,12.73
2017-11-29T06:10:32.995Z,17.92
2017-11-29T06:13:01.074Z,19.35
2017-11-29T06:15:29.145Z,12.40
2017-11-29T06:17:57.233Z,40.55
2017-11-29T06:20:26.059Z,9.85
2017-11-29T06:22:54.121Z,21.60
2017-11-29T06:25:22.184Z,15.93
2017-11-29T06:27:50.250Z,23.73
2017-11-29T06:30:19.005Z,9.95
2017-11-29T06:32:47.073Z,10.55
2017-11-29T06:35:15.231Z,13.10
2017-11-29T06:37:43.297Z,16.98
2017-11-29T06:40:11.365Z,39.65
2017-11-29T06:42:39.433Z,21.12
2017-11-29T06:45:07.479Z,9.45
2017-11-29T06:47:35.539Z,9.52
2017-11-29T06:50:03.612Z,18.02
2017-11-29T06:52:31.677Z,11.93
2017-11-29T06:54:59.745Z,8.95
2017-11-29T06:57:27.832Z,8.48
2017-11-29T06:59:55.912Z,21.52
2017-11-29T07:02:23.977Z,11.23
2017-11-29T07:04:52.048Z,14.90
2017-11-29T07:07:20.109Z,10.45
2017-11-29T07:09:48.177Z,11.70
2017-11-29T07:12:16.287Z,11.70
2017-11-29T07:14:44.506Z,10.20
2017-11-29T07:17:12.589Z,10.20
2017-11-29T07:19:40.658Z,12.80
2017-11-29T07:22:08.727Z,11.07
2017-11-29T07:24:36.796Z,10.95
2017-11-29T07:27:04.934Z,10.80
2017-11-29T07:29:33.126Z,9.80
2017-11-29T07:32:01.188Z,10.55
2017-11-29T07:34:30.061Z,11.45
2017-11-29T07:36:59.043Z,14.63
2017-11-29T07:39:27.092Z,11.25
2017-11-29T07:41:55.620Z,9.38
2017-11-29T07:44:24.658Z,9.27
2017-11-29T07:46:52.727Z,9.00
2017-11-29T07:49:20.795Z,11.52
2017-11-29T07:51:49.173Z,14.35
2017-11-29T07:54:17.250Z,10.82
2017-11-29T07:56:45.310Z,9.00
2017-11-29T07:59:13.381Z,10.70
2017-11-29T08:01:41.454Z,17.50
2017-11-29T08:04:09.516Z,10.50
2017-11-29T08:06:37.590Z,10.70
2017-11-29T08:09:05.669Z,10.43
2017-11-29T08:11:33.741Z,10.20
2017-11-29T08:14:01.854Z,11.38
2017-11-29T08:16:29.925Z,10.80
2017-11-29T08:18:58.038Z,9.10
2017-11-29T08:21:26.104Z,10.23
2017-11-29T08:23:54.239Z,9.68
2017-11-29T08:26:22.314Z,9.02
2017-11-29T08:28:50.480Z,8.30
2017-11-29T08:31:18.554Z,10.65
2017-11-29T08:33:46.729Z,7.35
2017-11-29T08:36:14.943Z,9.70
2017-11-29T08:38:43.009Z,9.52
2017-11-29T08:41:11.078Z,9.23
2017-11-29T08:43:39.153Z,9.75
2017-11-29T08:46:07.244Z,9.50
2017-11-29T08:48:35.352Z,9.75
2017-11-29T08:51:03.496Z,9.23
2017-11-29T08:53:31.603Z,10.93
2017-11-29T08:55:59.805Z,8.80
2017-11-29T08:58:27.864Z,9.20
2017-11-29T09:00:56.701Z,9.85
2017-11-29T09:03:24.768Z,9.57
2017-11-29T09:05:52.831Z,9.80
2017-11-29T09:08:21.732Z,9.18
2017-11-29T09:10:49.802Z,9.80
2017-11-29T09:13:17.886Z,9.73
2017-11-29T09:15:45.997Z,9.15
2017-11-29T09:18:14.825Z,9.75
2017-11-29T09:20:42.912Z,9.77
2017-11-29T09:23:11.084Z,9.23
2017-11-29T09:25:39.157Z,9.35
2017-11-29T09:28:07.275Z,9.73
2017-11-29T09:30:35.424Z,10.02
2017-11-29T09:33:03.508Z,9.35
2017-11-29T09:35:32.330Z,9.30
2017-11-29T09:38:00.433Z,9.02
2017-11-29T09:40:28.528Z,8.40
2017-11-29T09:42:56.675Z,8.93
2017-11-29T09:45:24.772Z,9.10
2017-11-29T09:47:53.629Z,8.57
2017-11-29T09:50:21.742Z,7.65
2017-11-29T09:52:50.584Z,9.20
2017-11-29T09:55:18.676Z,8.93
2017-11-29T09:57:46.740Z,10.20
2017-11-29T10:00:14.821Z,9.05
2017-11-29T10:02:43.804Z,9.75
2017-11-29T10:05:11.875Z,9.35
2017-11-29T10:07:40.044Z,8.65
2017-11-29T10:10:08.120Z,9.55
2017-11-29T10:12:36.184Z,10.32
2017-11-29T10:15:04.404Z,9.45
2017-11-29T10:17:32.475Z,9.10
2017-11-29T10:20:00.596Z,9.50
2017-11-29T10:22:28.677Z,8.50
2017-11-29T10:24:56.750Z,9.60
2017-11-29T10:27:24.893Z,9.63
2017-11-29T10:29:53.004Z,10.02
2017-11-29T10:32:21.081Z,10.90
2017-11-29T10:34:49.921Z,8.87
2017-11-29T10:37:18.011Z,9.70
2017-11-29T10:39:46.990Z,9.20
2017-11-29T10:42:15.889Z,9.27
2017-11-29T10:44:44.148Z,7.77
2017-11-29T10:47:13.037Z,9.30
2017-11-29T10:49:41.115Z,9.27
2017-11-29T10:52:09.344Z,7.90
2017-11-29T10:54:38.178Z,9.50
2017-11-29T10:57:06.978Z,9.10
2017-11-29T10:59:35.047Z,8.60
2017-11-29T11:02:03.245Z,9.70
2017-11-29T11:04:31.751Z,10.20
2017-11-29T11:07:00.606Z,8.90
2017-11-29T11:09:28.681Z,8.50
2017-11-29T11:11:56.845Z,9.17
2017-11-29T11:14:24.936Z,9.33
2017-11-29T11:16:53.787Z,9.57
2017-11-29T11:19:21.879Z,9.03
2017-11-29T11:21:50.023Z,10.57
2017-11-29T11:24:18.143Z,10.20
2017-11-29T11:26:46.991Z,9.47
2017-11-29T11:29:15.064Z,8.70
2017-11-29T11:31:43.134Z,8.43
2017-11-29T11:34:11.228Z,9.87
2017-11-29T11:36:39.343Z,9.23
2017-11-29T11:39:07.430Z,9.93
2017-11-29T11:41:35.504Z,9.70
2017-11-29T11:44:03.601Z,9.97
2017-11-29T11:46:31.692Z,9.70
2017-11-29T11:48:59.770Z,8.57
2017-11-29T11:51:28.660Z,9.30
2017-11-29T11:53:57.526Z,9.40
2017-11-29T11:56:25.641Z,11.20
2017-11-29T11:58:53.737Z,10.10
2017-11-29T12:01:21.892Z,9.30
2017-11-29T12:03:49.965Z,10.80
2017-11-29T12:06:18.031Z,9.93
2017-11-29T12:08:46.102Z,10.77
2017-11-29T12:11:14.192Z,10.30
2017-11-29T12:13:42.278Z,9.80
2017-11-29T12:16:10.388Z,10.30
2017-11-29T12:18:38.452Z,9.87
2017-11-29T12:21:06.529Z,9.57
2017-11-29T12:23:35.379Z,10.13
2017-11-29T12:26:03.479Z,11.27
2017-11-29T12:28:31.548Z,9.60
2017-11-29T12:30:59.619Z,8.93
2017-11-29T12:33:27.788Z,9.70
2017-11-29T12:35:55.960Z,9.47
2017-11-29T12:38:24.052Z,9.67
2017-11-29T12:40:52.905Z,9.23
2017-11-29T12:43:21.352Z,10.17
2017-11-29T12:45:49.411Z,9.00
2017-11-29T12:48:35.478Z,9.83
2017-11-29T12:51:16.076Z,9.60
2017-11-29T12:53:44.169Z,8.67
2017-11-29T12:56:12.984Z,9.77
2017-11-29T12:58:41.155Z,8.80
2017-11-29T13:01:09.237Z,9.30
2017-11-29T13:03:38.100Z,9.07
2017-11-29T13:06:06.174Z,9.33
2017-11-29T13:08:34.252Z,8.47
2017-11-29T13:11:02.329Z,8.93
2017-11-29T13:13:30.409Z,8.67
2017-11-29T13:15:58.467Z,8.70
2017-11-29T13:18:26.557Z,9.00
2017-11-29T13:20:54.620Z,9.10
2017-11-29T13:23:22.711Z,9.00
2017-11-29T13:25:51.551Z,7.93
2017-11-29T13:28:19.628Z,7.83
2017-11-29T13:30:47.695Z,9.73
2017-11-29T13:33:15.773Z,9.23
2017-11-29T13:35:43.857Z,9.20
2017-11-29T13:38:11.923Z,9.10
2017-11-29T13:40:40.018Z,9.60
2017-11-29T13:43:08.869Z,8.40
2017-11-29T13:45:36.956Z,9.83
2017-11-29T13:48:05.044Z,8.50
2017-11-29T13:50:34.430Z,9.37
2017-11-29T13:53:02.583Z,9.17
2017-11-29T13:55:30.683Z,9.37
2017-11-29T13:57:59.551Z,8.60
2017-11-29T14:00:27.637Z,7.70
2017-11-29T14:02:55.725Z,9.00
2017-11-29T14:05:23.860Z,8.03
2017-11-29T14:07:51.947Z,8.23
2017-11-29T14:10:20.049Z,8.47
2017-11-29T14:12:48.941Z,9.40
2017-11-29T14:15:17.016Z,8.70
2017-11-29T14:17:45.144Z,10.23
2017-11-29T14:20:13.228Z,10.13
2017-11-29T14:22:42.076Z,10.30
2017-11-29T14:25:10.270Z,9.50
2017-11-29T14:27:38.343Z,9.50
2017-11-29T14:30:06.408Z,11.07
2017-11-29T14:32:34.484Z,10.30
2017-11-29T14:35:02.566Z,9.35
2017-11-29T14:37:30.679Z,11.20
2017-11-29T14:39:58.762Z,9.75
2017-11-29T14:42:26.837Z,10.35
2017-11-29T14:44:54.920Z,10.82
2017-11-29T14:47:23.014Z,10.40
2017-11-29T14:49:51.104Z,11.48
2017-11-29T14:52:19.929Z,11.40
2017-11-29T14:54:48.011Z,12.05
2017-11-29T14:57:16.117Z,12.23
2017-11-29T14:59:44.187Z,11.73
2017-11-29T15:02:12.516Z,12.35
2017-11-29T15:04:40.616Z,10.32
2017-11-29T15:07:08.683Z,10.80
2017-11-29T15:09:36.757Z,10.93
2017-11-29T15:12:04.849Z,11.05
2017-11-29T15:14:32.935Z,11.20
2017-11-29T15:17:01.772Z,11.95
2017-11-29T15:19:29.841Z,12.23
2017-11-29T15:21:57.915Z,11.23
2017-11-29T15:24:26.104Z,11.10
2017-11-29T15:26:54.176Z,13.40
2017-11-29T15:29:22.347Z,13.10
2017-11-29T15:31:51.188Z,13.48
2017-11-29T15:34:19.982Z,14.30
2017-11-29T15:36:48.069Z,14.68
2017-11-29T15:39:16.174Z,14.30
2017-11-29T15:41:44.254Z,12.23
2017-11-29T15:44:12.313Z,14.90
2017-11-29T15:46:40.400Z,16.10
2017-11-29T15:49:08.778Z,15.55
2017-11-29T15:51:37.648Z,16.77
2017-11-29T15:54:05.720Z,14.73
2017-11-29T15:56:33.828Z,14.20
2017-11-29T15:59:02.664Z,14.00
2017-11-29T16:01:30.729Z,13.40
2017-11-29T16:03:58.806Z,12.68
2017-11-29T16:06:26.878Z,12.23
2017-11-29T16:08:54.965Z,13.20
2017-11-29T16:11:23.049Z,12.13
2017-11-29T16:13:51.143Z,13.62
2017-11-29T16:16:19.976Z,10.50
2017-11-29T16:18:49.233Z,12.90
2017-11-29T16:21:18.090Z,12.77
2017-11-29T16:23:46.175Z,47.22
2017-11-29T16:26:15.405Z,57.42
2017-11-29T16:28:43.476Z,47.13
2017-11-29T16:31:11.568Z,15.65
2017-11-29T16:33:39.649Z,22.48
2017-11-29T16:36:07.721Z,11.52
2017-11-29T16:38:35.814Z,12.68
2017-11-29T16:41:03.884Z,11.23
2017-11-29T16:43:31.968Z,11.65
2017-11-29T16:46:01.153Z,11.60
2017-11-29T16:48:29.232Z,12.05
2017-11-29T16:50:58.068Z,11.68
2017-11-29T16:53:26.184Z,11.50
2017-11-29T16:55:54.268Z,11.43
2017-11-29T16:58:22.376Z,10.50
2017-11-29T17:00:50.448Z,11.35
2017-11-29T17:03:18.522Z,12.45
2017-11-29T17:05:56.493Z,11.45
2017-11-29T17:08:25.328Z,11.60
2017-11-29T17:10:53.501Z,12.65
2017-11-29T17:13:21.620Z,12.82
2017-11-29T17:15:50.455Z,10.95
2017-11-29T17:18:18.520Z,10.98
2017-11-29T17:20:46.616Z,11.60
2017-11-29T17:23:14.679Z,12.32
2017-11-29T17:25:42.753Z,13.10
2017-11-29T17:28:10.821Z,11.90
2017-11-29T17:30:38.923Z,13.73
2017-11-29T17:33:07.015Z,12.98
2017-11-29T17:35:35.084Z,12.02
2017-11-29T17:38:03.917Z,12.55
2017-11-29T17:40:31.984Z,11.45
2017-11-29T17:43:00.088Z,12.88
2017-11-29T17:45:28.275Z,13.10
2017-11-29T17:47:57.784Z,14.87
2017-11-29T17:50:26.611Z,75.78
2017-11-29T17:52:54.726Z,440.40
2017-11-29T17:55:22.888Z,98.28
2017-11-29T17:57:51.066Z,191.35
2017-11-29T18:00:19.157Z,510.58
2017-11-29T18:02:47.996Z,247.98
2017-11-29T18:05:16.084Z,199.25
2017-11-29T18:07:44.173Z,74.45
2017-11-29T18:10:12.235Z,69.20
2017-11-29T18:12:40.308Z,91.12
2017-11-29T18:15:08.393Z,38.20
2017-11-29T18:17:37.238Z,34.63
2017-11-29T18:20:05.325Z,32.97
2017-11-29T18:22:33.394Z,24.33
2017-11-29T18:25:01.473Z,17.98
2017-11-29T18:27:29.540Z,14.87
2017-11-29T18:29:57.611Z,14.57
2017-11-29T18:32:25.689Z,21.02
2017-11-29T18:34:53.743Z,15.32
2017-11-29T18:37:21.849Z,15.30
2017-11-29T18:39:49.926Z,14.93
2017-11-29T18:42:18.770Z,12.85
2017-11-29T18:44:46.845Z,15.20
2017-11-29T18:47:14.929Z,14.75
2017-11-29T18:49:43.101Z,14.52
2017-11-29T18:52:11.169Z,14.50
2017-11-29T18:54:39.227Z,13.10
2017-11-29T18:57:07.300Z,13.62
2017-11-29T18:59:35.490Z,13.25
2017-11-29T19:02:03.556Z,15.07
2017-11-29T19:04:32.299Z,13.48
2017-11-29T19:07:00.387Z,13.90
2017-11-29T19:09:28.457Z,13.80
2017-11-29T19:11:56.549Z,13.45
2017-11-29T19:14:24.746Z,12.18
2017-11-29T19:16:53.583Z,14.43
2017-11-29T19:19:21.718Z,16.55
2017-11-29T19:21:49.817Z,14.63
2017-11-29T19:24:18.048Z,14.00
2017-11-29T19:26:46.111Z,13.55
2017-11-29T19:29:14.280Z,13.90
2017-11-29T19:31:42.347Z,13.82
2017-11-29T19:34:10.424Z,13.18
2017-11-29T19:36:38.488Z,14.27
2017-11-29T19:39:06.569Z,15.65
2017-11-29T19:41:34.641Z,14.00
2017-11-29T19:44:02.796Z,14.55
2017-11-29T19:46:30.870Z,15.10
2017-11-29T19:48:58.945Z,16.73
2017-11-29T19:51:27.021Z,14.95
2017-11-29T19:53:55.094Z,18.45
2017-11-29T19:56:24.036Z,16.98
2017-11-29T19:58:52.109Z,16.65
2017-11-29T20:01:20.186Z,16.10
2017-11-29T20:03:48.279Z,16.65
2017-11-29T20:06:16.343Z,17.70
2017-11-29T20:08:44.424Z,16.05
2017-11-29T20:11:12.601Z,16.35
2017-11-29T20:13:40.677Z,15.85
2017-11-29T20:16:08.845Z,17.80
2017-11-29T20:18:36.923Z,14.93
2017-11-29T20:21:05.019Z,15.18
2017-11-29T20:23:33.869Z,16.33
2017-11-29T20:26:02.638Z,16.70
2017-11-29T20:28:30.705Z,15.63
2017-11-29T20:30:58.777Z,15.52
2017-11-29T20:33:26.860Z,15.50
2017-11-29T20:35:54.943Z,15.20
2017-11-29T20:38:23.022Z,16.45
2017-11-29T20:40:51.100Z,15.23
2017-11-29T20:43:19.260Z,18.50
2017-11-29T20:45:47.335Z,17.05
2017-11-29T20:48:15.403Z,16.75
2017-11-29T20:50:43.497Z,16.65
2017-11-29T20:53:12.336Z,17.48
2017-11-29T20:55:40.432Z,19.33
2017-11-29T20:58:08.609Z,15.55
2017-11-29T21:00:36.687Z,16.20
2017-11-29T21:03:05.535Z,16.85
2017-11-29T21:05:33.625Z,17.42
2017-11-29T21:08:01.888Z,17.55
2017-11-29T21:10:29.958Z,18.83
2017-11-29T21:12:58.582Z,18.08
2017-11-29T21:15:27.432Z,17.77
2017-11-29T21:17:55.519Z,16.80
2017-11-29T21:20:23.588Z,30.00
2017-11-29T21:22:51.676Z,33.63
2017-11-29T21:25:19.773Z,20.00
2017-11-29T21:27:47.906Z,19.92
2017-11-29T21:30:15.989Z,16.25
2017-11-29T21:32:44.061Z,24.77
2017-11-29T21:35:12.517Z,20.77
2017-11-29T21:37:40.593Z,16.95
2017-11-29T21:40:08.674Z,14.68
2017-11-29T21:42:36.880Z,15.35
2017-11-29T21:45:05.716Z,45.15
2017-11-29T21:47:33.796Z,20.50
2017-11-29T21:50:02.781Z,16.05
2017-11-29T21:52:30.848Z,15.77
2017-11-29T21:54:59.040Z,15.88
2017-11-29T21:57:27.122Z,24.80
2017-11-29T21:59:55.191Z,24.30
2017-11-29T22:02:23.265Z,16.23
2017-11-29T22:04:51.323Z,15.25
2017-11-29T22:07:19.391Z,14.43
2017-11-29T22:09:47.500Z,13.75
2017-11-29T22:12:16.321Z,15.10
2017-11-29T22:14:44.387Z,14.05
2017-11-29T22:17:12.460Z,12.90
2017-11-29T22:19:40.536Z,12.85
2017-11-29T22:22:08.604Z,14.07
2017-11-29T22:24:36.684Z,13.52
2017-11-29T22:27:14.641Z,12.20
2017-11-29T22:29:43.221Z,13.90
2017-11-29T22:32:11.303Z,14.10
2017-11-29T22:34:39.382Z,12.32
2017-11-29T22:37:07.464Z,12.95
2017-11-29T22:39:35.560Z,13.23
2017-11-29T22:42:03.636Z,12.90
2017-11-29T22:44:31.816Z,12.95
2017-11-29T22:47:00.783Z,12.35
2017-11-29T22:49:29.503Z,12.37
2017-11-29T22:51:58.117Z,12.45
2017-11-29T22:54:26.295Z,12.30
2017-11-29T22:56:54.351Z,12.43
2017-11-29T22:59:22.464Z,10.82
2017-11-29T23:01:50.545Z,12.57
2017-11-29T23:04:18.661Z,11.38
2017-11-29T23:06:47.491Z,12.23
2017-11-29T23:09:15.595Z,11.80
2017-11-29T23:11:44.149Z,12.95
2017-11-29T23:14:12.224Z,12.73
2017-11-29T23:16:40.321Z,13.02
2017-11-29T23:19:08.392Z,12.55
2017-11-29T23:21:36.466Z,14.35
2017-11-29T23:24:04.583Z,13.45
2017-11-29T23:26:32.657Z,13.27
2017-11-29T23:29:00.727Z,13.95
2017-11-29T23:31:28.785Z,12.18
2017-11-29T23:33:56.873Z,13.27
2017-11-29T23:36:24.933Z,13.38
2017-11-29T23:38:53.599Z,12.25
2017-11-29T23:41:21.667Z,13.25
2017-11-29T23:43:50.504Z,13.07
2017-11-29T23:46:18.580Z,14.55
2017-11-29T23:48:46.661Z,12.48
2017-11-29T23:51:14.745Z,12.40
2017-11-29T23:53:42.811Z,13.75
2017-11-29T23:56:10.879Z,13.75
2017-11-29T23:58:38.935Z,16.00
